createdAt,value
2019-05-01T00:01:33.806Z,13.23
2019-05-01T00:04:20.410Z,12.20
2019-05-01T00:07:02.342Z,7.60
2019-05-01T00:09:42.354Z,10.67
2019-05-01T00:12:17.122Z,9.83
2019-05-01T00:14:48.544Z,13.37
2019-05-01T00:17:20.882Z,14.33
2019-05-01T00:19:52.286Z,24.13
2019-05-01T00:22:32.597Z,39.03
2019-05-01T00:25:01.014Z,40.63
2019-05-01T00:27:31.081Z,31.17
2019-05-01T00:30:01.205Z,36.50
2019-05-01T00:32:36.910Z,43.67
2019-05-01T00:35:08.429Z,46.03
2019-05-01T00:37:43.905Z,32.37
2019-05-01T00:40:16.982Z,18.17
2019-05-01T00:42:45.421Z,12.63
2019-05-01T00:45:20.101Z,17.03
2019-05-01T00:47:52.770Z,13.63
2019-05-01T00:50:22.767Z,36.30
2019-05-01T00:52:53.661Z,18.80
2019-05-01T00:55:38.698Z,12.60
2019-05-01T00:58:15.070Z,9.23
2019-05-01T01:01:01.659Z,12.00
2019-05-01T01:03:34.392Z,21.93
2019-05-01T01:06:14.209Z,16.00
2019-05-01T01:08:44.273Z,63.83
2019-05-01T01:11:12.694Z,77.07
2019-05-01T01:13:42.757Z,70.10
2019-05-01T01:16:11.190Z,34.63
2019-05-01T01:18:39.609Z,40.50
2019-05-01T01:21:08.158Z,32.87
2019-05-01T01:23:41.553Z,27.73
2019-05-01T01:26:11.997Z,20.37
2019-05-01T01:28:52.729Z,12.83
2019-05-01T01:31:24.186Z,11.37
2019-05-01T01:33:52.601Z,11.13
2019-05-01T01:36:29.830Z,18.63
2019-05-01T01:39:01.526Z,20.43
2019-05-01T01:41:29.940Z,13.17
2019-05-01T01:44:02.761Z,13.10
2019-05-01T01:46:41.841Z,12.63
2019-05-01T01:49:12.341Z,11.70
2019-05-01T01:51:41.173Z,59.20
2019-05-01T01:54:11.661Z,69.70
2019-05-01T01:56:46.448Z,96.27
2019-05-01T01:59:18.384Z,80.73
2019-05-01T02:01:57.186Z,73.93
2019-05-01T02:04:30.121Z,74.90
2019-05-01T02:07:01.401Z,61.63
2019-05-01T02:09:32.677Z,66.37
2019-05-01T02:12:05.577Z,54.37
2019-05-01T02:14:40.422Z,59.13
2019-05-01T02:17:20.733Z,65.17
2019-05-01T02:19:51.396Z,37.13
2019-05-01T02:22:22.479Z,27.23
2019-05-01T02:24:53.498Z,30.90
2019-05-01T02:27:26.264Z,38.13
2019-05-01T02:30:04.941Z,42.03
2019-05-01T02:32:46.547Z,63.70
2019-05-01T02:35:18.418Z,70.27
2019-05-01T02:37:48.681Z,64.43
2019-05-01T02:40:49.261Z,67.43
2019-05-01T02:43:18.915Z,56.43
2019-05-01T02:45:58.545Z,92.77
2019-05-01T02:48:34.100Z,108.23
2019-05-01T02:51:07.192Z,110.97
2019-05-01T02:53:40.330Z,89.87
2019-05-01T02:56:23.641Z,57.53
2019-05-01T02:58:55.383Z,17.17
2019-05-01T03:01:24.569Z,15.30
2019-05-01T03:03:58.000Z,13.27
2019-05-01T03:06:28.984Z,15.00
2019-05-01T03:09:01.072Z,20.30
2019-05-01T03:11:30.731Z,16.60
2019-05-01T03:14:05.526Z,8.37
2019-05-01T03:16:39.073Z,13.07
2019-05-01T03:19:10.530Z,11.97
2019-05-01T03:21:40.589Z,14.03
2019-05-01T03:24:19.571Z,34.67
2019-05-01T03:26:51.249Z,44.63
2019-05-01T03:29:20.534Z,33.60
2019-05-01T03:32:15.278Z,25.63
2019-05-01T03:34:29.714Z,26.27
2019-05-01T03:37:01.715Z,28.80
2019-05-01T03:39:33.353Z,24.33
2019-05-01T03:42:04.643Z,26.83
2019-05-01T03:44:36.159Z,52.90
2019-05-01T03:47:04.743Z,63.40
2019-05-01T03:49:33.649Z,35.33
2019-05-01T03:52:02.142Z,22.87
2019-05-01T03:54:35.702Z,90.63
2019-05-01T03:57:04.305Z,58.97
2019-05-01T03:59:36.185Z,49.60
2019-05-01T04:02:32.093Z,55.80
2019-05-01T04:04:57.023Z,35.07
2019-05-01T04:07:28.530Z,29.57
2019-05-01T04:09:57.178Z,20.57
2019-05-01T04:12:25.782Z,27.80
2019-05-01T04:14:59.876Z,29.83
2019-05-01T04:17:38.562Z,27.87
2019-05-01T04:20:10.105Z,28.53
2019-05-01T04:22:38.606Z,26.83
2019-05-01T04:25:13.381Z,27.47
2019-05-01T04:27:46.528Z,16.73
2019-05-01T04:30:37.634Z,14.23
2019-05-01T04:33:11.183Z,17.63
2019-05-01T04:35:49.961Z,23.53
2019-05-01T04:38:24.606Z,53.97
2019-05-01T04:41:02.370Z,62.30
2019-05-01T04:43:30.960Z,36.10
2019-05-01T04:45:59.450Z,16.30
2019-05-01T04:48:28.732Z,14.07
2019-05-01T04:51:00.099Z,16.10
2019-05-01T04:53:32.195Z,21.27
2019-05-01T04:56:05.245Z,25.83
2019-05-01T04:58:38.794Z,25.17
2019-05-01T05:01:21.979Z,22.87
2019-05-01T05:03:54.625Z,22.40
2019-05-01T05:06:28.728Z,23.17
2019-05-01T05:08:57.498Z,24.17
2019-05-01T05:11:44.213Z,26.33
2019-05-01T05:14:17.161Z,25.07
2019-05-01T05:16:53.525Z,27.67
2019-05-01T05:19:22.633Z,30.43
2019-05-01T05:21:54.282Z,26.20
2019-05-01T05:24:22.981Z,35.00
2019-05-01T05:27:00.827Z,34.33
2019-05-01T05:29:31.398Z,24.03
2019-05-01T05:32:06.309Z,27.63
2019-05-01T05:34:35.578Z,24.70
2019-05-01T05:37:07.449Z,20.67
2019-05-01T05:39:45.823Z,23.13
2019-05-01T05:42:17.557Z,35.73
2019-05-01T05:44:47.797Z,34.53
2019-05-01T05:47:19.288Z,30.37
2019-05-01T05:49:47.781Z,27.43
2019-05-01T05:52:35.737Z,23.53
2019-05-01T05:55:21.784Z,27.27
2019-05-01T05:57:56.445Z,24.03
2019-05-01T06:00:37.149Z,19.23
2019-05-01T06:03:31.327Z,20.07
2019-05-01T06:06:19.013Z,19.03
2019-05-01T06:08:49.928Z,22.10
2019-05-01T06:11:43.313Z,28.07
2019-05-01T06:14:20.369Z,26.90
2019-05-01T06:16:56.758Z,24.23
2019-05-01T06:19:29.333Z,25.67
2019-05-01T06:22:10.172Z,23.07
2019-05-01T06:24:46.033Z,28.40
2019-05-01T06:27:17.526Z,27.73
2019-05-01T06:29:46.601Z,24.13
2019-05-01T06:32:15.029Z,24.23
2019-05-01T06:34:43.601Z,20.10
2019-05-01T06:37:15.054Z,24.00
2019-05-01T06:39:48.054Z,19.53
2019-05-01T06:42:17.955Z,18.67
2019-05-01T06:44:57.173Z,20.93
2019-05-01T06:47:46.408Z,19.67
2019-05-01T06:50:32.141Z,18.50
2019-05-01T06:53:04.730Z,20.57
2019-05-01T06:55:35.104Z,20.77
2019-05-01T06:58:03.967Z,22.87
2019-05-01T07:00:34.317Z,21.60
2019-05-01T07:03:06.029Z,25.03
2019-05-01T07:05:35.262Z,23.10
2019-05-01T07:08:07.002Z,22.57
2019-05-01T07:10:43.647Z,21.53
2019-05-01T07:13:06.611Z,19.63
2019-05-01T07:15:37.942Z,20.20
2019-05-01T07:18:06.365Z,23.97
2019-05-01T07:20:47.225Z,21.53
2019-05-01T07:23:17.367Z,19.53
2019-05-01T07:25:47.985Z,20.77
2019-05-01T07:28:16.673Z,18.43
2019-05-01T07:30:49.845Z,20.13
2019-05-01T07:33:27.126Z,17.73
2019-05-01T07:36:01.288Z,16.50
2019-05-01T07:38:33.085Z,17.87
2019-05-01T07:41:03.755Z,19.53
2019-05-01T07:43:55.006Z,19.77
2019-05-01T07:46:41.126Z,17.10
2019-05-01T07:49:12.973Z,18.67
2019-05-01T07:51:52.821Z,17.17
2019-05-01T07:54:29.873Z,15.60
2019-05-01T07:57:03.238Z,14.10
2019-05-01T07:59:36.706Z,12.10
2019-05-01T08:02:08.750Z,11.43
2019-05-01T08:04:39.830Z,12.13
2019-05-01T08:07:11.001Z,12.23
2019-05-01T08:09:45.937Z,10.23
2019-05-01T08:12:24.133Z,10.60
2019-05-01T08:14:54.253Z,11.57
2019-05-01T08:17:24.565Z,10.67
2019-05-01T08:19:57.386Z,10.00
2019-05-01T08:22:39.098Z,8.37
2019-05-01T08:25:11.859Z,8.47
2019-05-01T08:27:50.988Z,8.93
2019-05-01T08:30:27.997Z,7.90
2019-05-01T08:33:17.210Z,8.73
2019-05-01T08:35:54.430Z,9.57
2019-05-01T08:38:29.761Z,7.80
2019-05-01T08:41:03.587Z,6.93
2019-05-01T08:43:33.577Z,8.37
2019-05-01T08:46:11.949Z,6.23
2019-05-01T08:48:52.089Z,7.50
2019-05-01T08:51:23.242Z,5.70
2019-05-01T08:53:57.725Z,7.47
2019-05-01T08:56:32.853Z,7.00
2019-05-01T08:59:25.820Z,7.87
2019-05-01T09:02:07.932Z,7.33
2019-05-01T09:04:25.257Z,6.90
2019-05-01T09:06:54.369Z,7.07
2019-05-01T09:09:23.776Z,7.13
2019-05-01T09:11:54.553Z,8.97
2019-05-01T09:14:35.170Z,7.70
2019-05-01T09:17:05.936Z,9.20
2019-05-01T09:19:37.494Z,8.10
2019-05-01T09:22:07.721Z,8.33
2019-05-01T09:24:38.133Z,9.13
2019-05-01T09:27:29.254Z,9.83
2019-05-01T09:30:04.141Z,7.93
2019-05-01T09:32:36.909Z,8.93
2019-05-01T09:35:15.468Z,9.70
2019-05-01T09:37:39.316Z,9.00
2019-05-01T09:40:11.381Z,9.03
2019-05-01T09:42:39.862Z,9.27
2019-05-01T09:45:10.393Z,9.47
2019-05-01T09:47:38.814Z,10.47
2019-05-01T09:50:16.329Z,8.67
2019-05-01T09:52:59.705Z,8.43
2019-05-01T09:55:36.390Z,9.40
2019-05-01T09:58:04.801Z,9.03
2019-05-01T10:00:36.473Z,8.27
2019-05-01T10:03:13.174Z,8.10
2019-05-01T10:05:42.899Z,8.37
2019-05-01T10:08:12.597Z,9.37
2019-05-01T10:10:44.037Z,9.43
2019-05-01T10:13:17.742Z,9.70
2019-05-01T10:15:50.988Z,8.57
2019-05-01T10:18:21.053Z,10.93
2019-05-01T10:20:52.458Z,10.53
2019-05-01T10:23:20.881Z,9.63
2019-05-01T10:25:50.954Z,9.87
2019-05-01T10:28:21.175Z,9.73
2019-05-01T10:31:11.856Z,9.73
2019-05-01T10:33:39.278Z,9.27
2019-05-01T10:36:18.876Z,10.83
2019-05-01T10:38:46.867Z,11.30
2019-05-01T10:41:16.201Z,10.13
2019-05-01T10:43:47.867Z,10.67
2019-05-01T10:46:19.014Z,10.20
2019-05-01T10:48:50.521Z,9.93
2019-05-01T10:51:19.145Z,11.00
2019-05-01T10:53:54.411Z,10.57
2019-05-01T10:56:24.055Z,10.73
2019-05-01T10:58:58.378Z,10.27
2019-05-01T11:01:47.873Z,10.93
2019-05-01T11:04:25.197Z,11.10
2019-05-01T11:06:55.341Z,9.97
2019-05-01T11:09:23.757Z,10.40
2019-05-01T11:11:52.263Z,10.17
2019-05-01T11:14:21.048Z,9.77
2019-05-01T11:16:49.537Z,11.70
2019-05-01T11:19:17.979Z,9.97
2019-05-01T11:21:49.233Z,9.93
2019-05-01T11:24:20.681Z,10.27
2019-05-01T11:26:49.270Z,10.30
2019-05-01T11:29:17.685Z,9.70
2019-05-01T11:31:56.537Z,9.53
2019-05-01T11:34:43.205Z,9.50
2019-05-01T11:37:29.850Z,9.70
2019-05-01T11:40:00.398Z,10.63
2019-05-01T11:42:33.206Z,10.23
2019-05-01T11:45:01.621Z,8.40
2019-05-01T11:47:34.597Z,9.20
2019-05-01T11:50:07.392Z,9.17
2019-05-01T11:52:35.818Z,8.37
2019-05-01T11:55:07.621Z,8.80
2019-05-01T11:57:42.261Z,10.87
2019-05-01T12:00:10.655Z,9.67
2019-05-01T12:02:39.334Z,8.23
2019-05-01T12:05:08.101Z,8.07
2019-05-01T12:07:36.653Z,8.80
2019-05-01T12:10:14.381Z,8.67
2019-05-01T12:12:45.914Z,8.27
2019-05-01T12:15:15.217Z,8.17
2019-05-01T12:17:51.115Z,7.70
2019-05-01T12:20:22.745Z,7.30
2019-05-01T12:22:55.737Z,7.50
2019-05-01T12:25:26.604Z,7.40
2019-05-01T12:27:55.016Z,7.53
2019-05-01T12:30:29.041Z,8.43
2019-05-01T12:33:00.382Z,7.13
2019-05-01T12:35:33.517Z,8.20
2019-05-01T12:38:11.779Z,7.33
2019-05-01T12:40:40.174Z,7.43
2019-05-01T12:43:12.351Z,7.93
2019-05-01T12:45:45.478Z,8.03
2019-05-01T12:48:15.566Z,8.43
2019-05-01T12:50:48.382Z,7.80
2019-05-01T12:53:21.600Z,7.97
2019-05-01T12:56:11.134Z,7.83
2019-05-01T12:58:44.705Z,8.73
2019-05-01T13:01:17.107Z,7.80
2019-05-01T13:03:45.633Z,7.50
2019-05-01T13:06:16.926Z,8.00
2019-05-01T13:08:47.861Z,7.37
2019-05-01T13:11:19.186Z,9.47
2019-05-01T13:13:50.502Z,8.40
2019-05-01T13:16:26.055Z,6.70
2019-05-01T13:18:57.415Z,7.50
2019-05-01T13:21:25.846Z,7.57
2019-05-01T13:23:54.525Z,7.17
2019-05-01T13:26:39.682Z,7.07
2019-05-01T13:29:18.882Z,7.50
2019-05-01T13:32:00.769Z,7.13
2019-05-01T13:34:33.106Z,10.53
2019-05-01T13:37:04.312Z,8.57
2019-05-01T13:39:35.526Z,7.63
2019-05-01T13:42:09.088Z,9.13
2019-05-01T13:44:40.697Z,8.10
2019-05-01T13:47:15.069Z,8.43
2019-05-01T13:49:43.747Z,8.03
2019-05-01T13:52:12.958Z,7.87
2019-05-01T13:54:41.369Z,8.33
2019-05-01T13:57:12.561Z,8.93
2019-05-01T13:59:45.597Z,7.80
2019-05-01T14:02:15.539Z,8.80
2019-05-01T14:04:47.057Z,8.80
2019-05-01T14:07:18.226Z,9.30
2019-05-01T14:09:52.793Z,9.23
2019-05-01T14:12:21.213Z,9.00
2019-05-01T14:14:51.272Z,9.00
2019-05-01T14:17:22.542Z,10.50
2019-05-01T14:19:52.593Z,9.50
2019-05-01T14:22:38.733Z,9.10
2019-05-01T14:25:17.573Z,7.83
2019-05-01T14:27:46.321Z,9.50
2019-05-01T14:30:15.077Z,9.63
2019-05-01T14:32:43.506Z,9.20
2019-05-01T14:35:15.069Z,9.63
2019-05-01T14:37:43.497Z,9.27
2019-05-01T14:40:15.485Z,9.60
2019-05-01T14:42:43.921Z,8.83
2019-05-01T14:45:15.391Z,9.50
2019-05-01T14:47:43.828Z,9.47
2019-05-01T14:50:13.868Z,9.27
2019-05-01T14:52:43.846Z,8.87
2019-05-01T14:55:21.010Z,10.33
2019-05-01T14:57:52.141Z,10.57
2019-05-01T15:00:29.453Z,10.10
2019-05-01T15:02:59.861Z,11.07
2019-05-01T15:05:37.478Z,10.17
2019-05-01T15:08:11.815Z,10.67
2019-05-01T15:10:40.292Z,10.77
2019-05-01T15:13:32.617Z,9.50
2019-05-01T15:16:07.330Z,9.80
2019-05-01T15:18:56.050Z,9.70
2019-05-01T15:21:24.525Z,13.23
2019-05-01T15:23:55.921Z,13.13
2019-05-01T15:26:27.062Z,12.33
2019-05-01T15:28:59.981Z,10.83
2019-05-01T15:31:37.254Z,10.20
2019-05-01T15:34:09.241Z,10.27
2019-05-01T15:36:41.719Z,10.07
2019-05-01T15:39:11.785Z,10.20
2019-05-01T15:42:03.605Z,10.00
2019-05-01T15:44:36.761Z,9.27
2019-05-01T15:47:08.305Z,12.50
2019-05-01T15:49:39.433Z,10.07
2019-05-01T15:52:10.354Z,9.90
2019-05-01T15:54:38.794Z,9.70
2019-05-01T15:57:10.153Z,10.33
2019-05-01T15:59:41.903Z,11.83
2019-05-01T16:02:13.309Z,9.50
2019-05-01T16:04:48.988Z,9.30
2019-05-01T16:07:23.461Z,10.50
2019-05-01T16:09:56.482Z,9.17
2019-05-01T16:12:26.550Z,9.37
2019-05-01T16:14:55.467Z,11.60
2019-05-01T16:17:26.457Z,10.30
2019-05-01T16:19:57.846Z,9.90
2019-05-01T16:22:29.398Z,10.80
2019-05-01T16:24:57.881Z,10.57
2019-05-01T16:27:26.311Z,10.30
2019-05-01T16:29:54.791Z,10.20
2019-05-01T16:32:29.364Z,9.87
2019-05-01T16:35:00.771Z,9.60
2019-05-01T16:37:29.289Z,9.90
2019-05-01T16:39:59.739Z,10.03
2019-05-01T16:42:32.871Z,9.30
2019-05-01T16:45:03.016Z,10.10
2019-05-01T16:47:35.468Z,11.00
2019-05-01T16:50:08.485Z,9.40
2019-05-01T16:52:38.113Z,10.47
2019-05-01T16:55:07.573Z,9.17
2019-05-01T16:57:39.065Z,8.93
2019-05-01T17:00:11.970Z,10.07
2019-05-01T17:02:48.181Z,9.33
2019-05-01T17:05:37.693Z,9.63
2019-05-01T17:08:07.757Z,9.77
2019-05-01T17:10:50.053Z,10.43
2019-05-01T17:13:18.816Z,10.93
2019-05-01T17:15:51.410Z,10.20
2019-05-01T17:18:19.910Z,10.10
2019-05-01T17:20:49.132Z,10.03
2019-05-01T17:23:17.578Z,9.70
2019-05-01T17:25:46.253Z,10.50
2019-05-01T17:28:14.678Z,14.37
2019-05-01T17:30:51.761Z,11.27
2019-05-01T17:33:21.652Z,10.87
2019-05-01T17:35:50.614Z,12.00
2019-05-01T17:38:19.075Z,13.07
2019-05-01T17:40:51.980Z,15.50
2019-05-01T17:43:23.905Z,21.43
2019-05-01T17:45:55.441Z,14.23
2019-05-01T17:48:23.894Z,16.63
2019-05-01T17:51:00.044Z,16.37
2019-05-01T17:53:30.010Z,28.40
2019-05-01T17:56:28.425Z,23.17
2019-05-01T17:58:59.653Z,24.63
2019-05-01T18:01:53.990Z,22.13
2019-05-01T18:04:47.827Z,18.20
2019-05-01T18:07:18.198Z,18.23
2019-05-01T18:09:46.645Z,19.80
2019-05-01T18:12:16.515Z,15.87
2019-05-01T18:14:46.489Z,14.23
2019-05-01T18:17:19.316Z,13.73
2019-05-01T18:19:56.581Z,14.80
2019-05-01T18:22:43.913Z,15.83
2019-05-01T18:25:18.753Z,15.13
2019-05-01T18:27:55.772Z,13.43
2019-05-01T18:30:43.417Z,14.27
2019-05-01T18:33:14.576Z,15.60
2019-05-01T18:35:44.930Z,13.93
2019-05-01T18:38:37.286Z,14.97
2019-05-01T18:41:07.356Z,14.53
2019-05-01T18:43:36.815Z,13.40
2019-05-01T18:46:08.185Z,14.40
2019-05-01T18:48:39.692Z,14.00
2019-05-01T18:51:16.405Z,14.33
2019-05-01T18:53:41.341Z,17.77
2019-05-01T18:56:12.427Z,14.50
2019-05-01T18:58:41.125Z,14.40
2019-05-01T19:01:10.935Z,16.00
2019-05-01T19:03:50.214Z,16.40
2019-05-01T19:06:18.710Z,15.67
2019-05-01T19:08:48.958Z,15.03
2019-05-01T19:11:18.052Z,15.77
2019-05-01T19:13:46.869Z,14.80
2019-05-01T19:16:22.795Z,14.10
2019-05-01T19:18:53.940Z,13.60
2019-05-01T19:21:26.597Z,15.37
2019-05-01T19:24:05.924Z,15.70
2019-05-01T19:26:42.562Z,17.40
2019-05-01T19:29:10.340Z,14.77
2019-05-01T19:31:38.803Z,14.90
2019-05-01T19:34:08.949Z,14.73
2019-05-01T19:36:40.343Z,14.07
2019-05-01T19:39:17.089Z,14.13
2019-05-01T19:41:49.214Z,12.83
2019-05-01T19:44:21.196Z,13.90
2019-05-01T19:46:52.566Z,14.43
2019-05-01T19:49:28.984Z,13.20
2019-05-01T19:52:00.757Z,15.33
2019-05-01T19:54:29.992Z,17.87
2019-05-01T19:57:04.201Z,17.03
2019-05-01T19:59:35.429Z,18.30
2019-05-01T20:02:17.193Z,15.30
2019-05-01T20:04:52.400Z,16.53
2019-05-01T20:07:21.612Z,15.00
2019-05-01T20:09:56.953Z,17.77
2019-05-01T20:12:23.326Z,15.40
2019-05-01T20:15:00.822Z,14.23
2019-05-01T20:17:39.849Z,14.13
2019-05-01T20:20:08.537Z,14.40
2019-05-01T20:22:48.154Z,14.17
2019-05-01T20:25:19.407Z,14.80
2019-05-01T20:27:53.231Z,14.27
2019-05-01T20:30:24.781Z,13.60
2019-05-01T20:32:58.156Z,15.47
2019-05-01T20:35:28.448Z,13.60
2019-05-01T20:37:59.565Z,13.03
2019-05-01T20:40:30.933Z,14.63
2019-05-01T20:43:05.803Z,14.10
2019-05-01T20:45:33.024Z,13.33
2019-05-01T20:48:04.238Z,14.50
2019-05-01T20:50:32.672Z,13.93
2019-05-01T20:53:04.057Z,14.83
2019-05-01T20:55:39.313Z,14.87
2019-05-01T20:58:22.781Z,14.43
2019-05-01T21:00:53.655Z,15.10
2019-05-01T21:03:25.962Z,15.03
2019-05-01T21:06:02.846Z,15.10
2019-05-01T21:08:45.477Z,14.93
2019-05-01T21:11:21.326Z,16.87
2019-05-01T21:13:56.657Z,15.30
2019-05-01T21:16:23.486Z,16.03
2019-05-01T21:18:52.645Z,17.77
2019-05-01T21:21:25.734Z,15.83
2019-05-01T21:23:57.214Z,16.17
2019-05-01T21:26:33.438Z,18.07
2019-05-01T21:29:05.709Z,15.37
2019-05-01T21:31:36.827Z,18.73
2019-05-01T21:34:16.881Z,15.93
2019-05-01T21:36:52.503Z,16.40
2019-05-01T21:39:20.372Z,17.00
2019-05-01T21:41:53.176Z,17.57
2019-05-01T21:44:24.441Z,16.47
2019-05-01T21:46:54.509Z,17.37
2019-05-01T21:49:34.679Z,16.30
2019-05-01T21:52:07.243Z,15.97
2019-05-01T21:54:34.893Z,15.43
2019-05-01T21:57:12.061Z,15.70
2019-05-01T21:59:44.751Z,16.20
2019-05-01T22:02:21.845Z,16.67
2019-05-01T22:04:53.210Z,15.97
2019-05-01T22:07:23.810Z,17.00
2019-05-01T22:09:59.338Z,15.67
2019-05-01T22:12:28.558Z,16.60
2019-05-01T22:15:06.264Z,16.50
2019-05-01T22:17:52.731Z,18.10
2019-05-01T22:20:25.784Z,16.23
2019-05-01T22:22:55.926Z,16.63
2019-05-01T22:25:37.414Z,17.40
2019-05-01T22:28:18.792Z,17.23
2019-05-01T22:30:54.773Z,16.70
2019-05-01T22:33:29.641Z,16.43
2019-05-01T22:35:59.713Z,16.80
2019-05-01T22:38:32.485Z,15.83
2019-05-01T22:41:06.751Z,16.60
2019-05-01T22:43:54.967Z,15.50
2019-05-01T22:46:25.042Z,16.10
2019-05-01T22:48:53.833Z,15.77
2019-05-01T22:51:30.062Z,16.83
2019-05-01T22:54:06.014Z,15.00
2019-05-01T22:56:39.937Z,16.33
2019-05-01T22:59:11.902Z,16.50
2019-05-01T23:01:49.166Z,14.70
2019-05-01T23:04:23.799Z,14.73
2019-05-01T23:06:57.934Z,15.33
2019-05-01T23:09:28.554Z,16.13
2019-05-01T23:12:06.026Z,16.37
2019-05-01T23:14:34.509Z,16.33
2019-05-01T23:17:19.761Z,15.60
2019-05-01T23:19:48.185Z,13.83
2019-05-01T23:22:16.682Z,14.30
2019-05-01T23:24:48.055Z,14.63
2019-05-01T23:27:18.124Z,14.23
2019-05-01T23:29:51.137Z,13.93
2019-05-01T23:32:20.062Z,14.13
2019-05-01T23:34:48.485Z,13.27
2019-05-01T23:37:16.919Z,13.30
2019-05-01T23:39:48.094Z,14.23
2019-05-01T23:42:19.232Z,13.50
2019-05-01T23:44:49.289Z,12.93
2019-05-01T23:47:18.202Z,13.37
2019-05-01T23:49:52.616Z,14.30
2019-05-01T23:52:26.203Z,13.90
2019-05-01T23:54:54.614Z,12.87
2019-05-01T23:57:26.173Z,12.70
2019-05-01T23:59:57.657Z,13.50
